sensor_id;sensor_type;location;lat;lon;timestamp;P1;durP1;ratioP1;P2;durP2;ratioP2
50355;SDS011;36264;51.296;-0.602;2022-08-07T00:01:10;9.30;;;5.32;;
50355;SDS011;36264;51.296;-0.602;2022-08-07T00:03:36;9.75;;;5.65;;
50355;SDS011;36264;51.296;-0.602;2022-08-07T00:06:02;12.98;;;5.70;;
50355;SDS011;36264;51.296;-0.602;2022-08-07T00:08:28;11.18;;;5.60;;
50355;SDS011;36264;51.296;-0.602;2022-08-07T00:10:53;6.85;;;4.45;;
50355;SDS011;36264;51.296;-0.602;2022-08-07T00:13:20;15.13;;;5.43;;
50355;SDS011;36264;51.296;-0.602;2022-08-07T00:15:46;10.82;;;5.28;;
50355;SDS011;36264;51.296;-0.602;2022-08-07T00:18:15;7.30;;;4.38;;
50355;SDS011;36264;51.296;-0.602;2022-08-07T00:20:42;11.27;;;5.47;;
50355;SDS011;36264;51.296;-0.602;2022-08-07T00:23:07;9.40;;;5.20;;
50355;SDS011;36264;51.296;-0.602;2022-08-07T00:25:33;9.32;;;5.00;;
50355;SDS011;36264;51.296;-0.602;2022-08-07T00:27:59;7.38;;;4.10;;
50355;SDS011;36264;51.296;-0.602;2022-08-07T00:30:24;12.02;;;4.70;;
50355;SDS011;36264;51.296;-0.602;2022-08-07T00:32:50;8.02;;;4.70;;
50355;SDS011;36264;51.296;-0.602;2022-08-07T00:35:16;8.40;;;4.70;;
50355;SDS011;36264;51.296;-0.602;2022-08-07T00:37:42;7.88;;;4.00;;
50355;SDS011;36264;51.296;-0.602;2022-08-07T00:40:09;8.02;;;4.40;;
50355;SDS011;36264;51.296;-0.602;2022-08-07T00:42:34;9.13;;;4.53;;
50355;SDS011;36264;51.296;-0.602;2022-08-07T00:45:00;8.52;;;4.55;;
50355;SDS011;36264;51.296;-0.602;2022-08-07T00:47:26;8.20;;;4.22;;
50355;SDS011;36264;51.296;-0.602;2022-08-07T00:49:51;8.40;;;4.43;;
50355;SDS011;36264;51.296;-0.602;2022-08-07T00:52:16;8.73;;;4.45;;
50355;SDS011;36264;51.296;-0.602;2022-08-07T00:54:42;8.70;;;4.47;;
50355;SDS011;36264;51.296;-0.602;2022-08-07T00:57:08;8.48;;;4.18;;
50355;SDS011;36264;51.296;-0.602;2022-08-07T00:59:35;8.63;;;4.20;;
50355;SDS011;36264;51.296;-0.602;2022-08-07T01:02:02;10.00;;;4.65;;
50355;SDS011;36264;51.296;-0.602;2022-08-07T01:04:32;9.85;;;4.57;;
50355;SDS011;36264;51.296;-0.602;2022-08-07T01:06:57;8.20;;;3.95;;
50355;SDS011;36264;51.296;-0.602;2022-08-07T01:09:23;6.97;;;3.60;;
50355;SDS011;36264;51.296;-0.602;2022-08-07T01:11:52;8.77;;;4.57;;
50355;SDS011;36264;51.296;-0.602;2022-08-07T01:14:18;8.27;;;4.43;;
50355;SDS011;36264;51.296;-0.602;2022-08-07T01:16:44;9.27;;;4.20;;
50355;SDS011;36264;51.296;-0.602;2022-08-07T01:19:11;8.25;;;4.03;;
50355;SDS011;36264;51.296;-0.602;2022-08-07T01:21:36;7.90;;;4.22;;
50355;SDS011;36264;51.296;-0.602;2022-08-07T01:24:02;6.30;;;3.03;;
50355;SDS011;36264;51.296;-0.602;2022-08-07T01:26:28;7.95;;;4.43;;
50355;SDS011;36264;51.296;-0.602;2022-08-07T01:28:54;9.93;;;4.28;;
50355;SDS011;36264;51.296;-0.602;2022-08-07T01:31:20;9.40;;;4.75;;
50355;SDS011;36264;51.296;-0.602;2022-08-07T01:33:51;9.27;;;4.05;;
50355;SDS011;36264;51.296;-0.602;2022-08-07T01:36:17;7.13;;;4.18;;
50355;SDS011;36264;51.296;-0.602;2022-08-07T01:38:43;6.97;;;3.78;;
50355;SDS011;36264;51.296;-0.602;2022-08-07T01:41:09;6.35;;;3.90;;
50355;SDS011;36264;51.296;-0.602;2022-08-07T01:43:36;9.20;;;4.63;;
50355;SDS011;36264;51.296;-0.602;2022-08-07T01:46:01;7.45;;;4.25;;
50355;SDS011;36264;51.296;-0.602;2022-08-07T01:48:29;6.45;;;3.75;;
50355;SDS011;36264;51.296;-0.602;2022-08-07T01:51:03;8.05;;;4.10;;
50355;SDS011;36264;51.296;-0.602;2022-08-07T01:53:32;5.95;;;3.35;;
50355;SDS011;36264;51.296;-0.602;2022-08-07T01:56:00;7.93;;;4.38;;
50355;SDS011;36264;51.296;-0.602;2022-08-07T01:58:32;7.72;;;4.45;;
50355;SDS011;36264;51.296;-0.602;2022-08-07T02:01:03;7.25;;;4.05;;
50355;SDS011;36264;51.296;-0.602;2022-08-07T02:03:32;7.95;;;4.25;;
50355;SDS011;36264;51.296;-0.602;2022-08-07T02:06:03;6.90;;;3.17;;
50355;SDS011;36264;51.296;-0.602;2022-08-07T02:08:32;6.38;;;3.55;;
50355;SDS011;36264;51.296;-0.602;2022-08-07T02:11:02;7.90;;;4.07;;
50355;SDS011;36264;51.296;-0.602;2022-08-07T02:13:28;7.63;;;4.47;;
50355;SDS011;36264;51.296;-0.602;2022-08-07T02:15:57;6.28;;;3.28;;
50355;SDS011;36264;51.296;-0.602;2022-08-07T02:18:27;6.30;;;4.07;;
50355;SDS011;36264;51.296;-0.602;2022-08-07T02:20:57;5.90;;;3.45;;
50355;SDS011;36264;51.296;-0.602;2022-08-07T02:23:24;7.65;;;3.67;;
50355;SDS011;36264;51.296;-0.602;2022-08-07T02:25:51;5.97;;;3.25;;
50355;SDS011;36264;51.296;-0.602;2022-08-07T02:28:19;7.65;;;3.88;;
50355;SDS011;36264;51.296;-0.602;2022-08-07T02:30:46;6.75;;;3.83;;
50355;SDS011;36264;51.296;-0.602;2022-08-07T02:33:12;8.55;;;4.30;;
50355;SDS011;36264;51.296;-0.602;2022-08-07T02:35:39;6.25;;;2.85;;
50355;SDS011;36264;51.296;-0.602;2022-08-07T02:38:06;5.85;;;3.88;;
50355;SDS011;36264;51.296;-0.602;2022-08-07T02:40:33;6.85;;;3.60;;
50355;SDS011;36264;51.296;-0.602;2022-08-07T02:42:59;8.85;;;4.32;;
50355;SDS011;36264;51.296;-0.602;2022-08-07T02:45:27;6.03;;;3.60;;
50355;SDS011;36264;51.296;-0.602;2022-08-07T02:47:55;6.07;;;3.05;;
50355;SDS011;36264;51.296;-0.602;2022-08-07T02:50:20;5.90;;;3.83;;
50355;SDS011;36264;51.296;-0.602;2022-08-07T02:52:53;7.13;;;3.53;;
50355;SDS011;36264;51.296;-0.602;2022-08-07T02:55:26;5.63;;;3.53;;
50355;SDS011;36264;51.296;-0.602;2022-08-07T02:57:56;6.95;;;3.58;;
50355;SDS011;36264;51.296;-0.602;2022-08-07T03:00:34;5.90;;;3.80;;
50355;SDS011;36264;51.296;-0.602;2022-08-07T03:03:00;9.07;;;3.63;;
50355;SDS011;36264;51.296;-0.602;2022-08-07T03:05:28;5.07;;;3.38;;
50355;SDS011;36264;51.296;-0.602;2022-08-07T03:07:54;5.65;;;3.42;;
50355;SDS011;36264;51.296;-0.602;2022-08-07T03:10:21;6.93;;;3.33;;
50355;SDS011;36264;51.296;-0.602;2022-08-07T03:12:48;8.25;;;3.67;;
50355;SDS011;36264;51.296;-0.602;2022-08-07T03:15:14;7.13;;;3.67;;
50355;SDS011;36264;51.296;-0.602;2022-08-07T03:17:41;8.32;;;3.70;;
50355;SDS011;36264;51.296;-0.602;2022-08-07T03:20:06;8.27;;;3.97;;
50355;SDS011;36264;51.296;-0.602;2022-08-07T03:22:33;6.70;;;3.72;;
50355;SDS011;36264;51.296;-0.602;2022-08-07T03:24:59;7.75;;;4.20;;
50355;SDS011;36264;51.296;-0.602;2022-08-07T03:27:25;6.50;;;3.72;;
50355;SDS011;36264;51.296;-0.602;2022-08-07T03:29:52;5.38;;;3.65;;
50355;SDS011;36264;51.296;-0.602;2022-08-07T03:32:41;5.45;;;3.10;;
50355;SDS011;36264;51.296;-0.602;2022-08-07T03:35:09;6.53;;;3.95;;
50355;SDS011;36264;51.296;-0.602;2022-08-07T03:37:37;6.30;;;3.03;;
50355;SDS011;36264;51.296;-0.602;2022-08-07T03:40:04;4.72;;;3.00;;
50355;SDS011;36264;51.296;-0.602;2022-08-07T03:42:32;6.63;;;3.85;;
50355;SDS011;36264;51.296;-0.602;2022-08-07T03:44:58;6.00;;;3.80;;
50355;SDS011;36264;51.296;-0.602;2022-08-07T03:47:24;5.20;;;3.00;;
50355;SDS011;36264;51.296;-0.602;2022-08-07T03:49:51;5.07;;;3.47;;
50355;SDS011;36264;51.296;-0.602;2022-08-07T03:52:19;5.28;;;3.42;;
50355;SDS011;36264;51.296;-0.602;2022-08-07T03:54:46;5.05;;;3.22;;
50355;SDS011;36264;51.296;-0.602;2022-08-07T03:57:12;5.78;;;3.60;;
50355;SDS011;36264;51.296;-0.602;2022-08-07T03:59:39;5.22;;;3.05;;
50355;SDS011;36264;51.296;-0.602;2022-08-07T04:02:05;5.30;;;3.28;;
50355;SDS011;36264;51.296;-0.602;2022-08-07T04:04:32;7.72;;;4.72;;
50355;SDS011;36264;51.296;-0.602;2022-08-07T04:06:58;6.43;;;3.72;;
50355;SDS011;36264;51.296;-0.602;2022-08-07T04:09:23;5.80;;;3.45;;
50355;SDS011;36264;51.296;-0.602;2022-08-07T04:11:49;8.65;;;3.95;;
50355;SDS011;36264;51.296;-0.602;2022-08-07T04:14:16;6.70;;;4.10;;
50355;SDS011;36264;51.296;-0.602;2022-08-07T04:16:41;5.88;;;3.60;;
50355;SDS011;36264;51.296;-0.602;2022-08-07T04:19:08;8.80;;;3.92;;
50355;SDS011;36264;51.296;-0.602;2022-08-07T04:21:34;8.40;;;4.65;;
50355;SDS011;36264;51.296;-0.602;2022-08-07T04:24:00;8.23;;;4.00;;
50355;SDS011;36264;51.296;-0.602;2022-08-07T04:26:26;13.10;;;5.28;;
50355;SDS011;36264;51.296;-0.602;2022-08-07T04:28:52;8.40;;;4.32;;
50355;SDS011;36264;51.296;-0.602;2022-08-07T04:31:17;9.43;;;4.85;;
50355;SDS011;36264;51.296;-0.602;2022-08-07T04:33:43;14.05;;;5.47;;
50355;SDS011;36264;51.296;-0.602;2022-08-07T04:36:10;9.32;;;5.50;;
50355;SDS011;36264;51.296;-0.602;2022-08-07T04:38:35;10.60;;;6.15;;
50355;SDS011;36264;51.296;-0.602;2022-08-07T04:41:02;11.85;;;6.05;;
50355;SDS011;36264;51.296;-0.602;2022-08-07T04:43:29;13.02;;;6.50;;
50355;SDS011;36264;51.296;-0.602;2022-08-07T04:53:53;10.75;;;5.60;;
50355;SDS011;36264;51.296;-0.602;2022-08-07T04:56:25;10.93;;;5.30;;
50355;SDS011;36264;51.296;-0.602;2022-08-07T04:59:01;11.40;;;5.20;;
50355;SDS011;36264;51.296;-0.602;2022-08-07T05:01:39;9.50;;;4.32;;
50355;SDS011;36264;51.296;-0.602;2022-08-07T05:04:13;6.90;;;4.43;;
50355;SDS011;36264;51.296;-0.602;2022-08-07T05:09:21;6.85;;;4.00;;
50355;SDS011;36264;51.296;-0.602;2022-08-07T05:11:53;6.93;;;4.10;;
50355;SDS011;36264;51.296;-0.602;2022-08-07T05:14:21;6.13;;;3.70;;
50355;SDS011;36264;51.296;-0.602;2022-08-07T05:16:52;8.02;;;3.80;;
50355;SDS011;36264;51.296;-0.602;2022-08-07T05:19:22;6.80;;;3.80;;
50355;SDS011;36264;51.296;-0.602;2022-08-07T05:21:51;5.22;;;3.33;;
50355;SDS011;36264;51.296;-0.602;2022-08-07T05:24:19;6.10;;;3.78;;
50355;SDS011;36264;51.296;-0.602;2022-08-07T05:26:48;7.93;;;4.13;;
50355;SDS011;36264;51.296;-0.602;2022-08-07T05:29:18;7.57;;;3.90;;
50355;SDS011;36264;51.296;-0.602;2022-08-07T05:31:45;6.57;;;4.25;;
50355;SDS011;36264;51.296;-0.602;2022-08-07T05:34:13;6.38;;;3.53;;
50355;SDS011;36264;51.296;-0.602;2022-08-07T05:36:41;7.55;;;4.40;;
50355;SDS011;36264;51.296;-0.602;2022-08-07T05:39:09;6.50;;;4.00;;
50355;SDS011;36264;51.296;-0.602;2022-08-07T05:41:37;8.13;;;3.90;;
50355;SDS011;36264;51.296;-0.602;2022-08-07T05:44:03;6.13;;;3.90;;
50355;SDS011;36264;51.296;-0.602;2022-08-07T05:46:29;8.50;;;3.75;;
50355;SDS011;36264;51.296;-0.602;2022-08-07T05:48:55;8.60;;;3.70;;
50355;SDS011;36264;51.296;-0.602;2022-08-07T05:51:22;6.75;;;3.50;;
50355;SDS011;36264;51.296;-0.602;2022-08-07T05:53:48;7.13;;;3.30;;
50355;SDS011;36264;51.296;-0.602;2022-08-07T05:56:14;6.93;;;4.22;;
50355;SDS011;36264;51.296;-0.602;2022-08-07T05:58:40;9.40;;;4.10;;
50355;SDS011;36264;51.296;-0.602;2022-08-07T06:01:10;8.48;;;3.92;;
50355;SDS011;36264;51.296;-0.602;2022-08-07T06:03:37;10.60;;;4.40;;
50355;SDS011;36264;51.296;-0.602;2022-08-07T06:06:05;8.25;;;4.28;;
50355;SDS011;36264;51.296;-0.602;2022-08-07T06:08:32;10.75;;;5.10;;
50355;SDS011;36264;51.296;-0.602;2022-08-07T06:10:57;11.65;;;5.15;;
50355;SDS011;36264;51.296;-0.602;2022-08-07T06:13:23;11.75;;;5.10;;
50355;SDS011;36264;51.296;-0.602;2022-08-07T06:15:49;11.77;;;5.30;;
50355;SDS011;36264;51.296;-0.602;2022-08-07T06:18:16;8.73;;;4.93;;
50355;SDS011;36264;51.296;-0.602;2022-08-07T06:20:43;9.60;;;4.95;;
50355;SDS011;36264;51.296;-0.602;2022-08-07T06:23:09;7.20;;;4.43;;
50355;SDS011;36264;51.296;-0.602;2022-08-07T06:25:35;10.48;;;4.57;;
50355;SDS011;36264;51.296;-0.602;2022-08-07T06:28:04;8.10;;;4.57;;
50355;SDS011;36264;51.296;-0.602;2022-08-07T06:30:31;10.23;;;5.60;;
50355;SDS011;36264;51.296;-0.602;2022-08-07T06:32:58;8.23;;;4.88;;
50355;SDS011;36264;51.296;-0.602;2022-08-07T06:35:25;7.78;;;4.60;;
50355;SDS011;36264;51.296;-0.602;2022-08-07T06:37:50;7.25;;;4.00;;
50355;SDS011;36264;51.296;-0.602;2022-08-07T06:40:16;7.43;;;4.15;;
50355;SDS011;36264;51.296;-0.602;2022-08-07T06:42:41;7.72;;;4.28;;
50355;SDS011;36264;51.296;-0.602;2022-08-07T06:45:12;7.15;;;3.85;;
50355;SDS011;36264;51.296;-0.602;2022-08-07T06:47:39;8.57;;;4.25;;
50355;SDS011;36264;51.296;-0.602;2022-08-07T06:50:05;10.82;;;4.50;;
50355;SDS011;36264;51.296;-0.602;2022-08-07T06:52:32;8.60;;;4.03;;
50355;SDS011;36264;51.296;-0.602;2022-08-07T06:55:12;5.95;;;4.00;;
50355;SDS011;36264;51.296;-0.602;2022-08-07T06:57:40;6.32;;;3.72;;
50355;SDS011;36264;51.296;-0.602;2022-08-07T07:00:09;6.22;;;3.75;;
50355;SDS011;36264;51.296;-0.602;2022-08-07T07:02:35;5.95;;;3.75;;
50355;SDS011;36264;51.296;-0.602;2022-08-07T07:05:02;8.45;;;3.72;;
50355;SDS011;36264;51.296;-0.602;2022-08-07T07:07:28;6.32;;;3.60;;
50355;SDS011;36264;51.296;-0.602;2022-08-07T07:09:54;8.90;;;3.30;;
50355;SDS011;36264;51.296;-0.602;2022-08-07T07:17:40;8.88;;;4.03;;
50355;SDS011;36264;51.296;-0.602;2022-08-07T07:20:14;8.88;;;4.32;;
50355;SDS011;36264;51.296;-0.602;2022-08-07T07:22:42;6.40;;;3.80;;
50355;SDS011;36264;51.296;-0.602;2022-08-07T07:25:09;6.93;;;3.78;;
50355;SDS011;36264;51.296;-0.602;2022-08-07T07:27:39;4.85;;;3.38;;
50355;SDS011;36264;51.296;-0.602;2022-08-07T07:30:08;5.00;;;3.40;;
50355;SDS011;36264;51.296;-0.602;2022-08-07T07:32:36;5.70;;;3.20;;
50355;SDS011;36264;51.296;-0.602;2022-08-07T07:35:04;4.75;;;2.90;;
50355;SDS011;36264;51.296;-0.602;2022-08-07T07:37:32;6.28;;;3.28;;
50355;SDS011;36264;51.296;-0.602;2022-08-07T07:40:02;8.90;;;4.28;;
50355;SDS011;36264;51.296;-0.602;2022-08-07T07:42:30;5.50;;;3.38;;
50355;SDS011;36264;51.296;-0.602;2022-08-07T07:45:01;8.65;;;4.25;;
50355;SDS011;36264;51.296;-0.602;2022-08-07T07:47:30;7.40;;;3.38;;
50355;SDS011;36264;51.296;-0.602;2022-08-07T07:52:26;7.13;;;4.13;;
50355;SDS011;36264;51.296;-0.602;2022-08-07T07:54:54;6.78;;;3.53;;
50355;SDS011;36264;51.296;-0.602;2022-08-07T07:57:20;5.03;;;3.30;;
50355;SDS011;36264;51.296;-0.602;2022-08-07T07:59:47;6.55;;;3.40;;
50355;SDS011;36264;51.296;-0.602;2022-08-07T08:02:15;6.00;;;3.70;;
50355;SDS011;36264;51.296;-0.602;2022-08-07T08:04:43;5.63;;;3.63;;
50355;SDS011;36264;51.296;-0.602;2022-08-07T08:07:10;7.95;;;4.15;;
50355;SDS011;36264;51.296;-0.602;2022-08-07T08:09:37;7.82;;;3.42;;
50355;SDS011;36264;51.296;-0.602;2022-08-07T08:12:04;8.73;;;4.05;;
50355;SDS011;36264;51.296;-0.602;2022-08-07T08:14:31;6.10;;;3.78;;
50355;SDS011;36264;51.296;-0.602;2022-08-07T08:16:57;5.47;;;3.20;;
50355;SDS011;36264;51.296;-0.602;2022-08-07T08:19:26;7.18;;;3.88;;
50355;SDS011;36264;51.296;-0.602;2022-08-07T08:21:53;6.05;;;3.75;;
50355;SDS011;36264;51.296;-0.602;2022-08-07T08:24:43;4.95;;;3.60;;
50355;SDS011;36264;51.296;-0.602;2022-08-07T08:27:35;6.60;;;3.90;;
50355;SDS011;36264;51.296;-0.602;2022-08-07T08:30:07;7.07;;;3.78;;
50355;SDS011;36264;51.296;-0.602;2022-08-07T08:32:39;4.93;;;2.90;;
50355;SDS011;36264;51.296;-0.602;2022-08-07T08:35:08;5.68;;;3.30;;
50355;SDS011;36264;51.296;-0.602;2022-08-07T08:37:37;6.72;;;3.53;;
50355;SDS011;36264;51.296;-0.602;2022-08-07T08:40:06;5.05;;;3.03;;
50355;SDS011;36264;51.296;-0.602;2022-08-07T08:50:39;4.95;;;3.40;;
50355;SDS011;36264;51.296;-0.602;2022-08-07T08:53:21;5.45;;;3.40;;
50355;SDS011;36264;51.296;-0.602;2022-08-07T08:55:57;5.60;;;3.78;;
50355;SDS011;36264;51.296;-0.602;2022-08-07T09:01:01;6.07;;;3.83;;
50355;SDS011;36264;51.296;-0.602;2022-08-07T09:06:47;5.68;;;3.67;;
50355;SDS011;36264;51.296;-0.602;2022-08-07T09:12:00;7.25;;;3.70;;
50355;SDS011;36264;51.296;-0.602;2022-08-07T09:14:36;6.63;;;3.70;;
50355;SDS011;36264;51.296;-0.602;2022-08-07T09:27:11;6.15;;;3.88;;
50355;SDS011;36264;51.296;-0.602;2022-08-07T09:29:12;9.88;;;4.43;;
50355;SDS011;36264;51.296;-0.602;2022-08-07T09:31:53;6.13;;;3.45;;
50355;SDS011;36264;51.296;-0.602;2022-08-07T09:34:28;8.63;;;3.75;;
50355;SDS011;36264;51.296;-0.602;2022-08-07T09:42:37;6.70;;;4.00;;
50355;SDS011;36264;51.296;-0.602;2022-08-07T09:45:36;5.97;;;3.40;;
50355;SDS011;36264;51.296;-0.602;2022-08-07T09:48:12;6.45;;;3.90;;
50355;SDS011;36264;51.296;-0.602;2022-08-07T09:51:02;6.18;;;3.40;;
50355;SDS011;36264;51.296;-0.602;2022-08-07T09:53:40;4.93;;;3.30;;
50355;SDS011;36264;51.296;-0.602;2022-08-07T09:59:18;5.82;;;3.40;;
50355;SDS011;36264;51.296;-0.602;2022-08-07T10:16:24;4.93;;;3.33;;
50355;SDS011;36264;51.296;-0.602;2022-08-07T10:19:19;6.00;;;2.88;;
50355;SDS011;36264;51.296;-0.602;2022-08-07T10:27:07;7.28;;;2.85;;
50355;SDS011;36264;51.296;-0.602;2022-08-07T10:35:21;4.70;;;2.67;;
50355;SDS011;36264;51.296;-0.602;2022-08-07T10:38:17;5.15;;;2.60;;
50355;SDS011;36264;51.296;-0.602;2022-08-07T10:40:57;4.35;;;2.50;;
50355;SDS011;36264;51.296;-0.602;2022-08-07T10:43:34;5.10;;;2.80;;
50355;SDS011;36264;51.296;-0.602;2022-08-07T10:46:12;6.22;;;2.60;;
50355;SDS011;36264;51.296;-0.602;2022-08-07T10:56:52;4.45;;;2.70;;
50355;SDS011;36264;51.296;-0.602;2022-08-07T11:08:01;5.43;;;2.78;;
50355;SDS011;36264;51.296;-0.602;2022-08-07T11:10:38;5.75;;;2.88;;
50355;SDS011;36264;51.296;-0.602;2022-08-07T11:13:09;4.75;;;2.75;;
50355;SDS011;36264;51.296;-0.602;2022-08-07T11:15:45;6.28;;;2.92;;
50355;SDS011;36264;51.296;-0.602;2022-08-07T11:26:02;5.68;;;2.80;;
50355;SDS011;36264;51.296;-0.602;2022-08-07T11:28:35;4.07;;;2.50;;
50355;SDS011;36264;51.296;-0.602;2022-08-07T11:31:09;5.35;;;2.60;;
50355;SDS011;36264;51.296;-0.602;2022-08-07T11:33:52;4.22;;;2.60;;
50355;SDS011;36264;51.296;-0.602;2022-08-07T11:39:16;4.53;;;2.55;;
50355;SDS011;36264;51.296;-0.602;2022-08-07T11:41:45;6.43;;;2.90;;
50355;SDS011;36264;51.296;-0.602;2022-08-07T11:44:35;4.85;;;2.60;;
50355;SDS011;36264;51.296;-0.602;2022-08-07T11:50:31;4.70;;;2.20;;
50355;SDS011;36264;51.296;-0.602;2022-08-07T12:07:16;4.60;;;2.50;;
50355;SDS011;36264;51.296;-0.602;2022-08-07T12:09:55;6.97;;;2.45;;
50355;SDS011;36264;51.296;-0.602;2022-08-07T12:12:32;4.35;;;2.38;;
50355;SDS011;36264;51.296;-0.602;2022-08-07T12:15:09;3.78;;;2.40;;
50355;SDS011;36264;51.296;-0.602;2022-08-07T12:17:44;4.32;;;2.50;;
50355;SDS011;36264;51.296;-0.602;2022-08-07T12:26:15;3.83;;;2.20;;
50355;SDS011;36264;51.296;-0.602;2022-08-07T12:31:38;3.80;;;1.90;;
50355;SDS011;36264;51.296;-0.602;2022-08-07T12:34:11;4.85;;;2.00;;
50355;SDS011;36264;51.296;-0.602;2022-08-07T12:36:38;3.20;;;1.90;;
50355;SDS011;36264;51.296;-0.602;2022-08-07T12:39:06;3.38;;;2.03;;
50355;SDS011;36264;51.296;-0.602;2022-08-07T12:41:34;4.43;;;2.08;;
50355;SDS011;36264;51.296;-0.602;2022-08-07T12:44:03;5.60;;;2.38;;
50355;SDS011;36264;51.296;-0.602;2022-08-07T12:52:19;4.18;;;1.98;;
50355;SDS011;36264;51.296;-0.602;2022-08-07T12:54:56;4.65;;;2.25;;
50355;SDS011;36264;51.296;-0.602;2022-08-07T12:57:29;4.10;;;2.10;;
50355;SDS011;36264;51.296;-0.602;2022-08-07T12:59:56;4.40;;;2.10;;
50355;SDS011;36264;51.296;-0.602;2022-08-07T13:11:07;3.90;;;2.58;;
50355;SDS011;36264;51.296;-0.602;2022-08-07T13:14:01;3.33;;;2.05;;
50355;SDS011;36264;51.296;-0.602;2022-08-07T13:16:40;2.60;;;1.70;;
50355;SDS011;36264;51.296;-0.602;2022-08-07T13:19:26;4.60;;;1.98;;
50355;SDS011;36264;51.296;-0.602;2022-08-07T13:21:59;4.00;;;1.85;;
50355;SDS011;36264;51.296;-0.602;2022-08-07T13:27:14;3.08;;;1.85;;
50355;SDS011;36264;51.296;-0.602;2022-08-07T13:29:51;3.08;;;1.85;;
50355;SDS011;36264;51.296;-0.602;2022-08-07T13:41:01;3.83;;;1.92;;
50355;SDS011;36264;51.296;-0.602;2022-08-07T13:43:20;4.28;;;2.10;;
50355;SDS011;36264;51.296;-0.602;2022-08-07T13:45:51;3.13;;;1.90;;
50355;SDS011;36264;51.296;-0.602;2022-08-07T13:48:20;4.72;;;1.73;;
50355;SDS011;36264;51.296;-0.602;2022-08-07T13:50:48;3.05;;;1.90;;
50355;SDS011;36264;51.296;-0.602;2022-08-07T13:53:20;4.20;;;1.73;;
50355;SDS011;36264;51.296;-0.602;2022-08-07T13:55:47;3.10;;;1.90;;
50355;SDS011;36264;51.296;-0.602;2022-08-07T13:58:14;4.10;;;2.45;;
50355;SDS011;36264;51.296;-0.602;2022-08-07T14:01:06;4.75;;;1.98;;
50355;SDS011;36264;51.296;-0.602;2022-08-07T14:03:34;3.88;;;1.80;;
50355;SDS011;36264;51.296;-0.602;2022-08-07T14:06:04;3.20;;;1.70;;
50355;SDS011;36264;51.296;-0.602;2022-08-07T14:08:30;3.88;;;1.60;;
50355;SDS011;36264;51.296;-0.602;2022-08-07T14:10:59;2.22;;;1.63;;
50355;SDS011;36264;51.296;-0.602;2022-08-07T14:13:28;2.95;;;1.70;;
50355;SDS011;36264;51.296;-0.602;2022-08-07T14:15:57;3.63;;;1.90;;
50355;SDS011;36264;51.296;-0.602;2022-08-07T14:18:31;2.53;;;1.60;;
50355;SDS011;36264;51.296;-0.602;2022-08-07T14:21:23;2.63;;;1.60;;
50355;SDS011;36264;51.296;-0.602;2022-08-07T14:23:55;3.28;;;1.73;;
50355;SDS011;36264;51.296;-0.602;2022-08-07T14:26:32;2.25;;;1.48;;
50355;SDS011;36264;51.296;-0.602;2022-08-07T14:29:02;2.50;;;1.70;;
50355;SDS011;36264;51.296;-0.602;2022-08-07T14:31:32;2.53;;;1.70;;
50355;SDS011;36264;51.296;-0.602;2022-08-07T14:33:58;2.72;;;1.60;;
50355;SDS011;36264;51.296;-0.602;2022-08-07T14:36:25;4.00;;;1.60;;
50355;SDS011;36264;51.296;-0.602;2022-08-07T14:38:51;2.08;;;1.50;;
50355;SDS011;36264;51.296;-0.602;2022-08-07T14:41:21;2.15;;;1.70;;
50355;SDS011;36264;51.296;-0.602;2022-08-07T14:43:53;1.88;;;1.40;;
50355;SDS011;36264;51.296;-0.602;2022-08-07T14:46:20;2.60;;;1.60;;
50355;SDS011;36264;51.296;-0.602;2022-08-07T14:48:48;1.98;;;1.50;;
50355;SDS011;36264;51.296;-0.602;2022-08-07T14:51:23;3.05;;;1.60;;
50355;SDS011;36264;51.296;-0.602;2022-08-07T14:53:54;3.20;;;1.60;;
50355;SDS011;36264;51.296;-0.602;2022-08-07T14:56:22;1.73;;;1.40;;
50355;SDS011;36264;51.296;-0.602;2022-08-07T14:58:51;2.30;;;1.60;;
50355;SDS011;36264;51.296;-0.602;2022-08-07T15:01:18;4.40;;;1.63;;
50355;SDS011;36264;51.296;-0.602;2022-08-07T15:03:47;2.88;;;1.83;;
50355;SDS011;36264;51.296;-0.602;2022-08-07T15:06:13;2.33;;;1.60;;
50355;SDS011;36264;51.296;-0.602;2022-08-07T15:08:46;3.83;;;1.90;;
50355;SDS011;36264;51.296;-0.602;2022-08-07T15:11:18;2.63;;;1.83;;
50355;SDS011;36264;51.296;-0.602;2022-08-07T15:16:24;2.65;;;1.73;;
50355;SDS011;36264;51.296;-0.602;2022-08-07T15:19:04;2.50;;;1.70;;
50355;SDS011;36264;51.296;-0.602;2022-08-07T15:21:33;2.55;;;1.67;;
50355;SDS011;36264;51.296;-0.602;2022-08-07T15:24:03;2.15;;;1.65;;
50355;SDS011;36264;51.296;-0.602;2022-08-07T15:26:37;2.63;;;1.58;;
50355;SDS011;36264;51.296;-0.602;2022-08-07T15:29:07;2.45;;;1.75;;
50355;SDS011;36264;51.296;-0.602;2022-08-07T15:31:36;2.17;;;1.50;;
50355;SDS011;36264;51.296;-0.602;2022-08-07T15:34:03;2.72;;;1.80;;
50355;SDS011;36264;51.296;-0.602;2022-08-07T15:36:30;2.15;;;1.70;;
50355;SDS011;36264;51.296;-0.602;2022-08-07T15:39:05;2.70;;;1.85;;
50355;SDS011;36264;51.296;-0.602;2022-08-07T15:44:26;2.78;;;2.00;;
50355;SDS011;36264;51.296;-0.602;2022-08-07T15:46:58;3.05;;;1.77;;
50355;SDS011;36264;51.296;-0.602;2022-08-07T15:49:28;2.78;;;1.80;;
50355;SDS011;36264;51.296;-0.602;2022-08-07T15:51:57;2.95;;;1.90;;
50355;SDS011;36264;51.296;-0.602;2022-08-07T15:54:33;3.50;;;1.92;;
50355;SDS011;36264;51.296;-0.602;2022-08-07T15:57:05;2.45;;;2.00;;
50355;SDS011;36264;51.296;-0.602;2022-08-07T15:59:34;3.25;;;2.13;;
50355;SDS011;36264;51.296;-0.602;2022-08-07T16:02:03;3.80;;;2.25;;
50355;SDS011;36264;51.296;-0.602;2022-08-07T16:04:32;4.25;;;2.05;;
50355;SDS011;36264;51.296;-0.602;2022-08-07T16:07:00;3.33;;;2.30;;
50355;SDS011;36264;51.296;-0.602;2022-08-07T16:09:48;3.42;;;2.50;;
50355;SDS011;36264;51.296;-0.602;2022-08-07T16:12:29;3.55;;;2.80;;
50355;SDS011;36264;51.296;-0.602;2022-08-07T16:20:45;4.55;;;2.97;;
50355;SDS011;36264;51.296;-0.602;2022-08-07T16:26:17;4.30;;;3.30;;
50355;SDS011;36264;51.296;-0.602;2022-08-07T16:28:56;6.10;;;3.80;;
50355;SDS011;36264;51.296;-0.602;2022-08-07T16:31:39;5.43;;;3.72;;
50355;SDS011;36264;51.296;-0.602;2022-08-07T16:34:13;4.13;;;3.58;;
50355;SDS011;36264;51.296;-0.602;2022-08-07T16:37:17;4.03;;;3.13;;
50355;SDS011;36264;51.296;-0.602;2022-08-07T16:45:47;4.00;;;3.03;;
50355;SDS011;36264;51.296;-0.602;2022-08-07T16:51:07;2.97;;;2.33;;
50355;SDS011;36264;51.296;-0.602;2022-08-07T17:05:08;2.65;;;1.80;;
50355;SDS011;36264;51.296;-0.602;2022-08-07T17:07:56;2.45;;;1.70;;
50355;SDS011;36264;51.296;-0.602;2022-08-07T17:18:15;2.50;;;1.63;;
50355;SDS011;36264;51.296;-0.602;2022-08-07T17:20:47;2.30;;;1.63;;
50355;SDS011;36264;51.296;-0.602;2022-08-07T17:31:24;2.08;;;1.45;;
50355;SDS011;36264;51.296;-0.602;2022-08-07T17:34:10;1.85;;;1.50;;
50355;SDS011;36264;51.296;-0.602;2022-08-07T17:36:44;1.98;;;1.50;;
50355;SDS011;36264;51.296;-0.602;2022-08-07T17:39:16;1.77;;;1.50;;
50355;SDS011;36264;51.296;-0.602;2022-08-07T17:52:03;1.67;;;1.40;;
50355;SDS011;36264;51.296;-0.602;2022-08-07T17:54:53;2.00;;;1.30;;
50355;SDS011;36264;51.296;-0.602;2022-08-07T17:57:30;1.83;;;1.30;;
50355;SDS011;36264;51.296;-0.602;2022-08-07T18:00:05;1.88;;;1.40;;
50355;SDS011;36264;51.296;-0.602;2022-08-07T18:05:04;2.53;;;1.40;;
50355;SDS011;36264;51.296;-0.602;2022-08-07T18:07:43;1.65;;;1.30;;
50355;SDS011;36264;51.296;-0.602;2022-08-07T18:10:18;3.33;;;1.40;;
50355;SDS011;36264;51.296;-0.602;2022-08-07T18:15:22;2.78;;;1.27;;
50355;SDS011;36264;51.296;-0.602;2022-08-07T18:17:56;2.10;;;1.30;;
50355;SDS011;36264;51.296;-0.602;2022-08-07T18:20:27;2.25;;;1.40;;
50355;SDS011;36264;51.296;-0.602;2022-08-07T18:23:05;1.83;;;1.48;;
50355;SDS011;36264;51.296;-0.602;2022-08-07T18:25:33;1.45;;;1.20;;
50355;SDS011;36264;51.296;-0.602;2022-08-07T18:41:52;1.45;;;1.30;;
50355;SDS011;36264;51.296;-0.602;2022-08-07T18:47:30;1.48;;;1.30;;
50355;SDS011;36264;51.296;-0.602;2022-08-07T18:52:54;1.70;;;1.20;;
50355;SDS011;36264;51.296;-0.602;2022-08-07T19:03:38;1.33;;;1.23;;